sensor_id;sensor_type;location;lat;lon;timestamp;P1;durP1;ratioP1;P2;durP2;ratioP2
9106;SDS011;4589;48.690;8.952;2023-11-21T00:02:19;5.13;;;3.40;;
9106;SDS011;4589;48.690;8.952;2023-11-21T00:04:45;4.80;;;2.97;;
9106;SDS011;4589;48.690;8.952;2023-11-21T00:07:12;7.77;;;3.23;;
9106;SDS011;4589;48.690;8.952;2023-11-21T00:09:37;8.27;;;3.50;;
9106;SDS011;4589;48.690;8.952;2023-11-21T00:12:03;7.57;;;3.60;;
9106;SDS011;4589;48.690;8.952;2023-11-21T00:14:29;12.43;;;3.70;;
9106;SDS011;4589;48.690;8.952;2023-11-21T00:16:55;7.93;;;3.77;;
9106;SDS011;4589;48.690;8.952;2023-11-21T00:19:21;9.33;;;3.70;;
9106;SDS011;4589;48.690;8.952;2023-11-21T00:21:47;4.37;;;3.63;;
9106;SDS011;4589;48.690;8.952;2023-11-21T00:24:13;8.37;;;3.80;;
9106;SDS011;4589;48.690;8.952;2023-11-21T00:26:39;9.93;;;3.87;;
9106;SDS011;4589;48.690;8.952;2023-11-21T00:29:05;9.23;;;3.90;;
9106;SDS011;4589;48.690;8.952;2023-11-21T00:31:35;8.47;;;3.80;;
9106;SDS011;4589;48.690;8.952;2023-11-21T00:34:03;7.20;;;4.00;;
9106;SDS011;4589;48.690;8.952;2023-11-21T00:36:30;10.00;;;3.73;;
9106;SDS011;4589;48.690;8.952;2023-11-21T00:38:56;6.47;;;3.67;;
9106;SDS011;4589;48.690;8.952;2023-11-21T00:41:22;8.10;;;4.23;;
9106;SDS011;4589;48.690;8.952;2023-11-21T00:43:48;14.00;;;4.40;;
9106;SDS011;4589;48.690;8.952;2023-11-21T00:46:13;8.90;;;3.13;;
9106;SDS011;4589;48.690;8.952;2023-11-21T00:48:39;8.00;;;4.33;;
9106;SDS011;4589;48.690;8.952;2023-11-21T00:51:05;6.87;;;4.10;;
9106;SDS011;4589;48.690;8.952;2023-11-21T00:53:31;9.63;;;4.63;;
9106;SDS011;4589;48.690;8.952;2023-11-21T00:55:57;5.47;;;4.87;;
9106;SDS011;4589;48.690;8.952;2023-11-21T00:58:24;6.50;;;3.93;;
9106;SDS011;4589;48.690;8.952;2023-11-21T01:00:49;7.10;;;3.00;;
9106;SDS011;4589;48.690;8.952;2023-11-21T01:03:15;10.27;;;3.17;;
9106;SDS011;4589;48.690;8.952;2023-11-21T01:05:41;12.17;;;3.37;;
9106;SDS011;4589;48.690;8.952;2023-11-21T01:08:07;9.50;;;3.37;;
9106;SDS011;4589;48.690;8.952;2023-11-21T01:10:33;6.63;;;3.83;;
9106;SDS011;4589;48.690;8.952;2023-11-21T01:13:00;5.37;;;3.37;;
9106;SDS011;4589;48.690;8.952;2023-11-21T01:15:26;5.50;;;3.10;;
9106;SDS011;4589;48.690;8.952;2023-11-21T01:17:52;5.83;;;3.40;;
9106;SDS011;4589;48.690;8.952;2023-11-21T01:20:18;9.37;;;3.20;;
9106;SDS011;4589;48.690;8.952;2023-11-21T01:22:44;3.47;;;2.80;;
9106;SDS011;4589;48.690;8.952;2023-11-21T01:25:09;4.80;;;2.87;;
9106;SDS011;4589;48.690;8.952;2023-11-21T01:27:35;3.50;;;2.40;;
9106;SDS011;4589;48.690;8.952;2023-11-21T01:30:02;5.40;;;3.10;;
9106;SDS011;4589;48.690;8.952;2023-11-21T01:32:28;5.27;;;2.57;;
9106;SDS011;4589;48.690;8.952;2023-11-21T01:34:54;7.80;;;3.00;;
9106;SDS011;4589;48.690;8.952;2023-11-21T01:37:20;6.20;;;2.83;;
9106;SDS011;4589;48.690;8.952;2023-11-21T01:39:46;8.27;;;2.43;;
9106;SDS011;4589;48.690;8.952;2023-11-21T01:42:12;6.80;;;3.00;;
9106;SDS011;4589;48.690;8.952;2023-11-21T01:44:38;6.53;;;3.30;;
9106;SDS011;4589;48.690;8.952;2023-11-21T01:47:05;3.53;;;2.73;;
9106;SDS011;4589;48.690;8.952;2023-11-21T01:49:34;8.43;;;3.20;;
9106;SDS011;4589;48.690;8.952;2023-11-21T01:52:01;4.83;;;3.50;;
9106;SDS011;4589;48.690;8.952;2023-11-21T01:54:29;9.80;;;3.40;;
9106;SDS011;4589;48.690;8.952;2023-11-21T01:56:58;6.77;;;2.93;;
9106;SDS011;4589;48.690;8.952;2023-11-21T01:59:37;11.10;;;3.00;;
9106;SDS011;4589;48.690;8.952;2023-11-21T02:02:06;4.53;;;2.80;;
9106;SDS011;4589;48.690;8.952;2023-11-21T02:04:32;5.73;;;2.97;;
9106;SDS011;4589;48.690;8.952;2023-11-21T02:06:59;5.00;;;2.30;;
9106;SDS011;4589;48.690;8.952;2023-11-21T02:09:25;3.50;;;2.50;;
9106;SDS011;4589;48.690;8.952;2023-11-21T02:11:52;5.40;;;2.23;;
9106;SDS011;4589;48.690;8.952;2023-11-21T02:14:18;7.47;;;2.13;;
9106;SDS011;4589;48.690;8.952;2023-11-21T02:16:47;8.97;;;3.13;;
9106;SDS011;4589;48.690;8.952;2023-11-21T02:19:14;3.80;;;2.50;;
9106;SDS011;4589;48.690;8.952;2023-11-21T02:21:50;4.90;;;2.50;;
9106;SDS011;4589;48.690;8.952;2023-11-21T02:24:22;7.00;;;2.43;;
9106;SDS011;4589;48.690;8.952;2023-11-21T02:26:48;5.03;;;2.20;;
9106;SDS011;4589;48.690;8.952;2023-11-21T02:29:16;4.17;;;1.80;;
9106;SDS011;4589;48.690;8.952;2023-11-21T02:31:53;7.40;;;2.50;;
9106;SDS011;4589;48.690;8.952;2023-11-21T02:34:20;2.40;;;2.20;;
9106;SDS011;4589;48.690;8.952;2023-11-21T02:36:46;4.70;;;2.57;;
9106;SDS011;4589;48.690;8.952;2023-11-21T02:39:14;8.60;;;2.10;;
9106;SDS011;4589;48.690;8.952;2023-11-21T02:41:40;7.87;;;2.40;;
9106;SDS011;4589;48.690;8.952;2023-11-21T02:44:06;3.33;;;2.13;;
9106;SDS011;4589;48.690;8.952;2023-11-21T02:46:32;2.53;;;2.20;;
9106;SDS011;4589;48.690;8.952;2023-11-21T02:49:07;6.20;;;2.10;;
9106;SDS011;4589;48.690;8.952;2023-11-21T02:51:35;4.67;;;2.20;;
9106;SDS011;4589;48.690;8.952;2023-11-21T02:54:02;2.23;;;1.90;;
9106;SDS011;4589;48.690;8.952;2023-11-21T02:56:31;4.50;;;1.60;;
9106;SDS011;4589;48.690;8.952;2023-11-21T02:58:59;3.03;;;1.83;;
9106;SDS011;4589;48.690;8.952;2023-11-21T03:01:25;5.03;;;1.80;;
9106;SDS011;4589;48.690;8.952;2023-11-21T03:03:52;3.43;;;2.50;;
9106;SDS011;4589;48.690;8.952;2023-11-21T03:06:18;2.70;;;2.23;;
9106;SDS011;4589;48.690;8.952;2023-11-21T03:08:44;6.07;;;2.10;;
9106;SDS011;4589;48.690;8.952;2023-11-21T03:11:10;3.20;;;2.40;;
9106;SDS011;4589;48.690;8.952;2023-11-21T03:13:37;2.53;;;2.13;;
9106;SDS011;4589;48.690;8.952;2023-11-21T03:16:04;3.70;;;2.20;;
9106;SDS011;4589;48.690;8.952;2023-11-21T03:18:31;3.47;;;2.43;;
9106;SDS011;4589;48.690;8.952;2023-11-21T03:20:57;2.40;;;2.20;;
9106;SDS011;4589;48.690;8.952;2023-11-21T03:23:22;3.83;;;1.93;;
9106;SDS011;4589;48.690;8.952;2023-11-21T03:25:48;5.73;;;2.00;;
9106;SDS011;4589;48.690;8.952;2023-11-21T03:28:14;2.00;;;1.80;;
9106;SDS011;4589;48.690;8.952;2023-11-21T03:30:40;1.87;;;1.67;;
9106;SDS011;4589;48.690;8.952;2023-11-21T03:33:06;4.60;;;2.30;;
9106;SDS011;4589;48.690;8.952;2023-11-21T03:35:32;2.80;;;2.03;;
9106;SDS011;4589;48.690;8.952;2023-11-21T03:37:58;4.50;;;2.50;;
9106;SDS011;4589;48.690;8.952;2023-11-21T03:40:24;2.43;;;1.90;;
9106;SDS011;4589;48.690;8.952;2023-11-21T03:42:49;3.33;;;1.90;;
9106;SDS011;4589;48.690;8.952;2023-11-21T03:45:15;2.10;;;1.73;;
9106;SDS011;4589;48.690;8.952;2023-11-21T03:47:41;2.40;;;1.40;;
9106;SDS011;4589;48.690;8.952;2023-11-21T03:50:07;3.70;;;1.80;;
9106;SDS011;4589;48.690;8.952;2023-11-21T03:52:34;4.17;;;2.37;;
9106;SDS011;4589;48.690;8.952;2023-11-21T03:55:00;4.60;;;1.97;;
9106;SDS011;4589;48.690;8.952;2023-11-21T03:57:26;1.70;;;1.50;;
9106;SDS011;4589;48.690;8.952;2023-11-21T03:59:52;2.63;;;1.60;;
9106;SDS011;4589;48.690;8.952;2023-11-21T04:02:18;4.07;;;1.93;;
9106;SDS011;4589;48.690;8.952;2023-11-21T04:04:44;2.73;;;2.00;;
9106;SDS011;4589;48.690;8.952;2023-11-21T04:07:10;2.10;;;1.90;;
9106;SDS011;4589;48.690;8.952;2023-11-21T04:09:36;2.50;;;2.10;;
9106;SDS011;4589;48.690;8.952;2023-11-21T04:12:02;1.83;;;1.67;;
9106;SDS011;4589;48.690;8.952;2023-11-21T04:14:28;2.93;;;1.80;;
9106;SDS011;4589;48.690;8.952;2023-11-21T04:16:54;2.13;;;1.70;;
9106;SDS011;4589;48.690;8.952;2023-11-21T04:19:20;3.70;;;1.87;;
9106;SDS011;4589;48.690;8.952;2023-11-21T04:21:46;6.70;;;2.33;;
9106;SDS011;4589;48.690;8.952;2023-11-21T04:24:12;5.47;;;2.30;;
9106;SDS011;4589;48.690;8.952;2023-11-21T04:26:38;4.00;;;2.10;;
9106;SDS011;4589;48.690;8.952;2023-11-21T04:29:03;3.93;;;1.90;;
9106;SDS011;4589;48.690;8.952;2023-11-21T04:31:29;9.20;;;1.67;;
9106;SDS011;4589;48.690;8.952;2023-11-21T04:33:55;5.83;;;2.30;;
9106;SDS011;4589;48.690;8.952;2023-11-21T04:36:21;3.93;;;2.00;;
9106;SDS011;4589;48.690;8.952;2023-11-21T04:38:47;1.70;;;1.47;;
9106;SDS011;4589;48.690;8.952;2023-11-21T04:41:13;2.80;;;1.70;;
9106;SDS011;4589;48.690;8.952;2023-11-21T04:43:39;2.50;;;1.80;;
9106;SDS011;4589;48.690;8.952;2023-11-21T04:46:05;2.03;;;1.70;;
9106;SDS011;4589;48.690;8.952;2023-11-21T04:48:31;4.23;;;2.00;;
9106;SDS011;4589;48.690;8.952;2023-11-21T04:50:58;4.70;;;1.73;;
9106;SDS011;4589;48.690;8.952;2023-11-21T04:53:24;4.60;;;1.53;;
9106;SDS011;4589;48.690;8.952;2023-11-21T04:55:50;1.83;;;1.70;;
9106;SDS011;4589;48.690;8.952;2023-11-21T04:58:15;1.80;;;1.70;;
9106;SDS011;4589;48.690;8.952;2023-11-21T05:00:42;4.63;;;2.00;;
9106;SDS011;4589;48.690;8.952;2023-11-21T05:03:09;4.10;;;2.00;;
9106;SDS011;4589;48.690;8.952;2023-11-21T05:05:34;3.17;;;1.70;;
9106;SDS011;4589;48.690;8.952;2023-11-21T05:08:00;2.50;;;2.07;;
9106;SDS011;4589;48.690;8.952;2023-11-21T05:10:27;3.43;;;1.80;;
9106;SDS011;4589;48.690;8.952;2023-11-21T05:12:54;3.20;;;2.20;;
9106;SDS011;4589;48.690;8.952;2023-11-21T05:15:20;2.20;;;1.97;;
9106;SDS011;4589;48.690;8.952;2023-11-21T05:17:46;3.37;;;2.03;;
9106;SDS011;4589;48.690;8.952;2023-11-21T05:20:14;2.73;;;2.23;;
9106;SDS011;4589;48.690;8.952;2023-11-21T05:22:45;2.50;;;1.93;;
9106;SDS011;4589;48.690;8.952;2023-11-21T05:25:12;2.73;;;2.17;;
9106;SDS011;4589;48.690;8.952;2023-11-21T05:27:37;2.83;;;2.37;;
9106;SDS011;4589;48.690;8.952;2023-11-21T05:30:04;3.30;;;2.40;;
9106;SDS011;4589;48.690;8.952;2023-11-21T05:32:30;3.03;;;2.10;;
9106;SDS011;4589;48.690;8.952;2023-11-21T05:34:56;3.13;;;2.73;;
9106;SDS011;4589;48.690;8.952;2023-11-21T05:37:22;3.00;;;2.63;;
9106;SDS011;4589;48.690;8.952;2023-11-21T05:39:48;5.13;;;3.00;;
9106;SDS011;4589;48.690;8.952;2023-11-21T05:42:14;8.93;;;3.07;;
9106;SDS011;4589;48.690;8.952;2023-11-21T05:44:43;5.43;;;3.03;;
9106;SDS011;4589;48.690;8.952;2023-11-21T05:47:09;5.60;;;3.67;;
9106;SDS011;4589;48.690;8.952;2023-11-21T05:49:35;3.83;;;3.30;;
9106;SDS011;4589;48.690;8.952;2023-11-21T05:52:01;5.70;;;2.90;;
9106;SDS011;4589;48.690;8.952;2023-11-21T05:54:26;6.20;;;3.37;;
9106;SDS011;4589;48.690;8.952;2023-11-21T05:56:53;3.53;;;3.23;;
9106;SDS011;4589;48.690;8.952;2023-11-21T05:59:19;4.43;;;3.43;;
9106;SDS011;4589;48.690;8.952;2023-11-21T06:01:45;5.03;;;3.30;;
9106;SDS011;4589;48.690;8.952;2023-11-21T06:04:11;4.33;;;3.10;;
9106;SDS011;4589;48.690;8.952;2023-11-21T06:06:37;3.37;;;2.70;;
9106;SDS011;4589;48.690;8.952;2023-11-21T06:09:03;5.07;;;3.17;;
9106;SDS011;4589;48.690;8.952;2023-11-21T06:11:30;3.50;;;2.80;;
9106;SDS011;4589;48.690;8.952;2023-11-21T06:13:56;3.20;;;2.90;;
9106;SDS011;4589;48.690;8.952;2023-11-21T06:16:23;4.70;;;3.20;;
9106;SDS011;4589;48.690;8.952;2023-11-21T06:18:49;4.10;;;3.30;;
9106;SDS011;4589;48.690;8.952;2023-11-21T06:21:14;10.70;;;3.60;;
9106;SDS011;4589;48.690;8.952;2023-11-21T06:23:41;5.40;;;3.60;;
9106;SDS011;4589;48.690;8.952;2023-11-21T06:26:07;14.47;;;3.10;;
9106;SDS011;4589;48.690;8.952;2023-11-21T06:28:34;8.23;;;3.93;;
9106;SDS011;4589;48.690;8.952;2023-11-21T06:31:01;9.10;;;5.30;;
9106;SDS011;4589;48.690;8.952;2023-11-21T06:33:32;6.93;;;5.33;;
9106;SDS011;4589;48.690;8.952;2023-11-21T06:35:58;6.40;;;4.70;;
9106;SDS011;4589;48.690;8.952;2023-11-21T06:38:27;5.97;;;4.17;;
9106;SDS011;4589;48.690;8.952;2023-11-21T06:40:55;7.80;;;5.00;;
9106;SDS011;4589;48.690;8.952;2023-11-21T06:43:21;5.60;;;4.83;;
9106;SDS011;4589;48.690;8.952;2023-11-21T06:45:47;4.17;;;3.43;;
9106;SDS011;4589;48.690;8.952;2023-11-21T06:48:13;5.03;;;3.57;;
9106;SDS011;4589;48.690;8.952;2023-11-21T06:50:40;6.13;;;3.90;;
9106;SDS011;4589;48.690;8.952;2023-11-21T06:53:06;5.00;;;4.03;;
9106;SDS011;4589;48.690;8.952;2023-11-21T06:55:33;5.70;;;3.83;;
9106;SDS011;4589;48.690;8.952;2023-11-21T06:57:58;9.00;;;4.90;;
9106;SDS011;4589;48.690;8.952;2023-11-21T07:00:25;6.03;;;4.73;;
9106;SDS011;4589;48.690;8.952;2023-11-21T07:02:52;11.33;;;4.40;;
9106;SDS011;4589;48.690;8.952;2023-11-21T07:05:19;6.20;;;4.50;;
9106;SDS011;4589;48.690;8.952;2023-11-21T07:07:46;7.10;;;4.90;;
9106;SDS011;4589;48.690;8.952;2023-11-21T07:10:13;6.50;;;5.20;;
9106;SDS011;4589;48.690;8.952;2023-11-21T07:12:39;5.93;;;3.87;;
9106;SDS011;4589;48.690;8.952;2023-11-21T07:15:05;6.30;;;4.17;;
9106;SDS011;4589;48.690;8.952;2023-11-21T07:17:34;7.50;;;4.80;;
9106;SDS011;4589;48.690;8.952;2023-11-21T07:20:00;5.73;;;4.27;;
9106;SDS011;4589;48.690;8.952;2023-11-21T07:22:26;6.90;;;4.20;;
9106;SDS011;4589;48.690;8.952;2023-11-21T07:24:52;7.20;;;4.20;;
9106;SDS011;4589;48.690;8.952;2023-11-21T07:27:17;6.27;;;4.20;;
9106;SDS011;4589;48.690;8.952;2023-11-21T07:29:43;8.57;;;4.47;;
9106;SDS011;4589;48.690;8.952;2023-11-21T07:32:09;5.80;;;3.50;;
9106;SDS011;4589;48.690;8.952;2023-11-21T07:34:35;7.93;;;3.40;;
9106;SDS011;4589;48.690;8.952;2023-11-21T07:37:02;6.47;;;4.30;;
9106;SDS011;4589;48.690;8.952;2023-11-21T07:39:28;4.67;;;3.73;;
9106;SDS011;4589;48.690;8.952;2023-11-21T07:41:53;10.07;;;4.63;;
9106;SDS011;4589;48.690;8.952;2023-11-21T07:44:19;7.53;;;4.90;;
9106;SDS011;4589;48.690;8.952;2023-11-21T07:46:45;9.10;;;4.47;;
9106;SDS011;4589;48.690;8.952;2023-11-21T07:49:11;6.60;;;3.80;;
9106;SDS011;4589;48.690;8.952;2023-11-21T07:51:39;8.80;;;5.50;;
9106;SDS011;4589;48.690;8.952;2023-11-21T07:54:05;6.90;;;4.47;;
9106;SDS011;4589;48.690;8.952;2023-11-21T07:56:31;7.30;;;4.70;;
9106;SDS011;4589;48.690;8.952;2023-11-21T07:58:56;6.17;;;4.70;;
9106;SDS011;4589;48.690;8.952;2023-11-21T08:01:22;8.23;;;5.00;;
9106;SDS011;4589;48.690;8.952;2023-11-21T08:03:48;7.30;;;5.17;;
9106;SDS011;4589;48.690;8.952;2023-11-21T08:06:17;5.60;;;4.70;;
9106;SDS011;4589;48.690;8.952;2023-11-21T08:08:43;14.77;;;5.30;;
9106;SDS011;4589;48.690;8.952;2023-11-21T08:11:09;12.87;;;4.80;;
9106;SDS011;4589;48.690;8.952;2023-11-21T08:13:36;5.40;;;3.83;;
9106;SDS011;4589;48.690;8.952;2023-11-21T08:16:01;6.30;;;3.83;;
9106;SDS011;4589;48.690;8.952;2023-11-21T08:18:29;4.33;;;3.77;;
9106;SDS011;4589;48.690;8.952;2023-11-21T08:20:55;6.97;;;3.70;;
9106;SDS011;4589;48.690;8.952;2023-11-21T08:23:21;4.47;;;3.70;;
9106;SDS011;4589;48.690;8.952;2023-11-21T08:25:53;4.60;;;3.23;;
9106;SDS011;4589;48.690;8.952;2023-11-21T08:28:20;8.77;;;3.50;;
9106;SDS011;4589;48.690;8.952;2023-11-21T08:30:51;8.03;;;3.80;;
9106;SDS011;4589;48.690;8.952;2023-11-21T08:33:18;3.50;;;3.20;;
9106;SDS011;4589;48.690;8.952;2023-11-21T08:35:44;4.33;;;2.90;;
9106;SDS011;4589;48.690;8.952;2023-11-21T08:38:10;5.77;;;3.70;;
9106;SDS011;4589;48.690;8.952;2023-11-21T08:40:37;6.70;;;3.60;;
9106;SDS011;4589;48.690;8.952;2023-11-21T08:43:03;7.17;;;4.00;;
9106;SDS011;4589;48.690;8.952;2023-11-21T08:45:29;7.43;;;3.80;;
9106;SDS011;4589;48.690;8.952;2023-11-21T08:47:56;7.43;;;4.17;;
9106;SDS011;4589;48.690;8.952;2023-11-21T08:50:22;8.90;;;4.57;;
9106;SDS011;4589;48.690;8.952;2023-11-21T08:52:48;6.80;;;4.23;;
9106;SDS011;4589;48.690;8.952;2023-11-21T08:55:14;6.40;;;4.63;;
9106;SDS011;4589;48.690;8.952;2023-11-21T08:57:41;5.13;;;4.27;;
9106;SDS011;4589;48.690;8.952;2023-11-21T09:00:09;8.13;;;4.23;;
9106;SDS011;4589;48.690;8.952;2023-11-21T09:02:42;6.63;;;4.60;;
9106;SDS011;4589;48.690;8.952;2023-11-21T09:05:09;7.23;;;4.43;;
9106;SDS011;4589;48.690;8.952;2023-11-21T09:07:36;5.93;;;4.77;;
9106;SDS011;4589;48.690;8.952;2023-11-21T09:10:02;6.13;;;4.43;;
9106;SDS011;4589;48.690;8.952;2023-11-21T09:12:29;7.50;;;4.30;;
9106;SDS011;4589;48.690;8.952;2023-11-21T09:14:57;7.13;;;4.30;;
9106;SDS011;4589;48.690;8.952;2023-11-21T09:17:23;7.07;;;4.73;;
9106;SDS011;4589;48.690;8.952;2023-11-21T09:19:49;6.73;;;5.00;;
9106;SDS011;4589;48.690;8.952;2023-11-21T09:22:17;8.43;;;5.40;;
9106;SDS011;4589;48.690;8.952;2023-11-21T09:24:43;5.97;;;4.87;;
9106;SDS011;4589;48.690;8.952;2023-11-21T09:27:09;12.00;;;5.20;;
9106;SDS011;4589;48.690;8.952;2023-11-21T09:29:36;8.63;;;4.80;;
9106;SDS011;4589;48.690;8.952;2023-11-21T09:32:05;7.30;;;4.33;;
9106;SDS011;4589;48.690;8.952;2023-11-21T09:34:32;12.47;;;5.47;;
9106;SDS011;4589;48.690;8.952;2023-11-21T09:37:01;6.00;;;4.77;;
9106;SDS011;4589;48.690;8.952;2023-11-21T09:39:30;7.80;;;5.20;;
9106;SDS011;4589;48.690;8.952;2023-11-21T09:41:58;8.90;;;4.90;;
9106;SDS011;4589;48.690;8.952;2023-11-21T09:44:44;7.10;;;4.67;;
9106;SDS011;4589;48.690;8.952;2023-11-21T09:47:20;8.60;;;5.50;;
9106;SDS011;4589;48.690;8.952;2023-11-21T09:49:47;6.23;;;4.67;;
9106;SDS011;4589;48.690;8.952;2023-11-21T09:52:19;7.50;;;4.90;;
9106;SDS011;4589;48.690;8.952;2023-11-21T09:54:50;19.30;;;5.90;;
9106;SDS011;4589;48.690;8.952;2023-11-21T09:57:18;10.13;;;5.87;;
9106;SDS011;4589;48.690;8.952;2023-11-21T09:59:46;7.37;;;5.10;;
9106;SDS011;4589;48.690;8.952;2023-11-21T10:02:15;10.47;;;5.87;;
9106;SDS011;4589;48.690;8.952;2023-11-21T10:04:43;7.87;;;5.13;;
9106;SDS011;4589;48.690;8.952;2023-11-21T10:07:10;7.33;;;5.10;;
9106;SDS011;4589;48.690;8.952;2023-11-21T10:09:37;7.80;;;5.70;;
9106;SDS011;4589;48.690;8.952;2023-11-21T10:12:03;8.57;;;5.20;;
9106;SDS011;4589;48.690;8.952;2023-11-21T10:14:33;9.53;;;5.90;;
9106;SDS011;4589;48.690;8.952;2023-11-21T10:17:02;8.47;;;5.00;;
9106;SDS011;4589;48.690;8.952;2023-11-21T10:19:28;8.67;;;4.83;;
9106;SDS011;4589;48.690;8.952;2023-11-21T10:21:55;10.13;;;5.13;;
9106;SDS011;4589;48.690;8.952;2023-11-21T10:24:22;9.33;;;5.43;;
9106;SDS011;4589;48.690;8.952;2023-11-21T10:26:48;9.67;;;5.73;;
9106;SDS011;4589;48.690;8.952;2023-11-21T10:29:15;8.13;;;5.23;;
9106;SDS011;4589;48.690;8.952;2023-11-21T10:31:42;14.73;;;6.60;;
9106;SDS011;4589;48.690;8.952;2023-11-21T10:34:19;9.63;;;5.23;;
9106;SDS011;4589;48.690;8.952;2023-11-21T10:36:45;10.20;;;5.97;;
9106;SDS011;4589;48.690;8.952;2023-11-21T10:39:20;8.37;;;5.40;;
9106;SDS011;4589;48.690;8.952;2023-11-21T10:41:48;7.60;;;4.17;;
9106;SDS011;4589;48.690;8.952;2023-11-21T10:44:18;6.63;;;4.80;;
9106;SDS011;4589;48.690;8.952;2023-11-21T10:46:51;6.33;;;4.87;;
9106;SDS011;4589;48.690;8.952;2023-11-21T10:49:26;7.07;;;4.03;;
9106;SDS011;4589;48.690;8.952;2023-11-21T10:51:52;4.33;;;3.20;;
9106;SDS011;4589;48.690;8.952;2023-11-21T10:54:22;5.50;;;3.70;;
9106;SDS011;4589;48.690;8.952;2023-11-21T10:56:50;4.40;;;3.27;;
9106;SDS011;4589;48.690;8.952;2023-11-21T10:59:24;4.73;;;2.77;;
9106;SDS011;4589;48.690;8.952;2023-11-21T11:01:53;4.53;;;3.17;;
9106;SDS011;4589;48.690;8.952;2023-11-21T11:04:22;6.60;;;2.97;;
9106;SDS011;4589;48.690;8.952;2023-11-21T11:07:02;4.27;;;2.80;;
9106;SDS011;4589;48.690;8.952;2023-11-21T11:09:30;6.03;;;2.97;;
9106;SDS011;4589;48.690;8.952;2023-11-21T11:11:58;3.00;;;2.70;;
9106;SDS011;4589;48.690;8.952;2023-11-21T11:14:24;6.17;;;3.00;;
9106;SDS011;4589;48.690;8.952;2023-11-21T11:16:53;4.73;;;3.13;;
9106;SDS011;4589;48.690;8.952;2023-11-21T11:19:19;3.90;;;3.20;;
9106;SDS011;4589;48.690;8.952;2023-11-21T11:24:52;5.27;;;3.70;;
9106;SDS011;4589;48.690;8.952;2023-11-21T11:28:06;4.50;;;3.00;;
9106;SDS011;4589;48.690;8.952;2023-11-21T11:33:11;4.63;;;3.83;;
9106;SDS011;4589;48.690;8.952;2023-11-21T11:36:02;5.27;;;4.13;;
9106;SDS011;4589;48.690;8.952;2023-11-21T11:38:32;9.60;;;4.80;;
9106;SDS011;4589;48.690;8.952;2023-11-21T11:41:03;6.23;;;3.80;;
9106;SDS011;4589;48.690;8.952;2023-11-21T11:43:30;5.23;;;4.27;;
9106;SDS011;4589;48.690;8.952;2023-11-21T11:46:09;7.30;;;4.40;;
9106;SDS011;4589;48.690;8.952;2023-11-21T11:48:38;4.97;;;3.93;;
9106;SDS011;4589;48.690;8.952;2023-11-21T11:51:11;7.47;;;4.37;;
9106;SDS011;4589;48.690;8.952;2023-11-21T11:53:46;7.73;;;5.13;;
9106;SDS011;4589;48.690;8.952;2023-11-21T11:58:51;7.90;;;4.50;;
9106;SDS011;4589;48.690;8.952;2023-11-21T12:01:21;7.93;;;4.47;;
9106;SDS011;4589;48.690;8.952;2023-11-21T12:04:33;8.50;;;5.73;;
9106;SDS011;4589;48.690;8.952;2023-11-21T12:06:39;8.73;;;5.03;;
9106;SDS011;4589;48.690;8.952;2023-11-21T12:09:05;8.13;;;5.07;;
9106;SDS011;4589;48.690;8.952;2023-11-21T12:11:31;6.47;;;5.03;;
9106;SDS011;4589;48.690;8.952;2023-11-21T12:13:58;8.60;;;5.77;;
9106;SDS011;4589;48.690;8.952;2023-11-21T12:16:25;6.50;;;4.77;;
9106;SDS011;4589;48.690;8.952;2023-11-21T12:18:52;8.83;;;5.80;;
9106;SDS011;4589;48.690;8.952;2023-11-21T12:21:19;10.27;;;5.90;;
9106;SDS011;4589;48.690;8.952;2023-11-21T12:23:45;8.30;;;6.10;;
9106;SDS011;4589;48.690;8.952;2023-11-21T12:26:12;9.47;;;5.90;;
9106;SDS011;4589;48.690;8.952;2023-11-21T12:28:38;14.10;;;6.60;;
9106;SDS011;4589;48.690;8.952;2023-11-21T12:31:04;13.73;;;6.77;;
9106;SDS011;4589;48.690;8.952;2023-11-21T12:33:31;11.93;;;7.00;;
9106;SDS011;4589;48.690;8.952;2023-11-21T12:36:00;17.03;;;7.63;;
9106;SDS011;4589;48.690;8.952;2023-11-21T12:38:33;16.00;;;9.57;;
9106;SDS011;4589;48.690;8.952;2023-11-21T12:41:00;16.23;;;8.77;;
9106;SDS011;4589;48.690;8.952;2023-11-21T12:43:25;13.70;;;7.83;;
9106;SDS011;4589;48.690;8.952;2023-11-21T12:46:04;16.47;;;8.67;;
9106;SDS011;4589;48.690;8.952;2023-11-21T12:48:43;18.43;;;9.43;;
9106;SDS011;4589;48.690;8.952;2023-11-21T12:51:11;19.53;;;9.07;;
9106;SDS011;4589;48.690;8.952;2023-11-21T12:53:37;21.50;;;9.87;;
9106;SDS011;4589;48.690;8.952;2023-11-21T12:56:07;21.67;;;9.77;;
9106;SDS011;4589;48.690;8.952;2023-11-21T12:58:36;19.10;;;10.33;;
9106;SDS011;4589;48.690;8.952;2023-11-21T13:01:02;20.37;;;9.50;;
9106;SDS011;4589;48.690;8.952;2023-11-21T13:03:29;22.60;;;10.67;;
9106;SDS011;4589;48.690;8.952;2023-11-21T13:05:55;16.37;;;8.30;;
9106;SDS011;4589;48.690;8.952;2023-11-21T13:08:22;20.67;;;8.93;;
9106;SDS011;4589;48.690;8.952;2023-11-21T13:10:50;25.23;;;9.90;;
9106;SDS011;4589;48.690;8.952;2023-11-21T13:13:19;23.07;;;9.60;;
9106;SDS011;4589;48.690;8.952;2023-11-21T13:15:49;18.90;;;8.07;;
9106;SDS011;4589;48.690;8.952;2023-11-21T13:18:17;16.60;;;7.93;;
9106;SDS011;4589;48.690;8.952;2023-11-21T13:20:43;18.03;;;8.60;;
9106;SDS011;4589;48.690;8.952;2023-11-21T13:23:10;15.87;;;7.80;;
9106;SDS011;4589;48.690;8.952;2023-11-21T13:25:37;32.63;;;9.17;;
9106;SDS011;4589;48.690;8.952;2023-11-21T13:28:05;21.77;;;9.47;;
9106;SDS011;4589;48.690;8.952;2023-11-21T13:30:31;20.60;;;8.57;;
9106;SDS011;4589;48.690;8.952;2023-11-21T13:33:00;18.73;;;8.43;;
9106;SDS011;4589;48.690;8.952;2023-11-21T13:35:27;17.90;;;9.23;;
9106;SDS011;4589;48.690;8.952;2023-11-21T13:38:05;21.90;;;8.40;;
9106;SDS011;4589;48.690;8.952;2023-11-21T13:40:35;20.33;;;8.63;;
9106;SDS011;4589;48.690;8.952;2023-11-21T13:43:09;17.00;;;8.07;;
9106;SDS011;4589;48.690;8.952;2023-11-21T13:45:36;7.53;;;4.90;;
9106;SDS011;4589;48.690;8.952;2023-11-21T13:48:04;7.00;;;4.60;;
9106;SDS011;4589;48.690;8.952;2023-11-21T13:50:34;9.80;;;4.00;;
9106;SDS011;4589;48.690;8.952;2023-11-21T13:53:01;10.63;;;4.53;;
9106;SDS011;4589;48.690;8.952;2023-11-21T13:55:46;6.30;;;4.10;;
9106;SDS011;4589;48.690;8.952;2023-11-21T13:58:12;8.40;;;5.00;;
9106;SDS011;4589;48.690;8.952;2023-11-21T14:00:44;8.53;;;3.90;;
9106;SDS011;4589;48.690;8.952;2023-11-21T14:03:11;9.20;;;5.40;;
9106;SDS011;4589;48.690;8.952;2023-11-21T14:05:46;9.37;;;4.80;;
9106;SDS011;4589;48.690;8.952;2023-11-21T14:08:17;10.37;;;4.50;;
9106;SDS011;4589;48.690;8.952;2023-11-21T14:10:46;9.27;;;4.37;;
9106;SDS011;4589;48.690;8.952;2023-11-21T14:13:20;5.77;;;3.70;;
9106;SDS011;4589;48.690;8.952;2023-11-21T14:15:48;6.07;;;3.93;;
9106;SDS011;4589;48.690;8.952;2023-11-21T14:18:16;8.10;;;4.43;;
9106;SDS011;4589;48.690;8.952;2023-11-21T14:20:46;10.63;;;4.87;;
9106;SDS011;4589;48.690;8.952;2023-11-21T14:23:12;9.70;;;5.37;;
9106;SDS011;4589;48.690;8.952;2023-11-21T14:25:37;7.57;;;5.10;;
9106;SDS011;4589;48.690;8.952;2023-11-21T14:28:04;7.97;;;4.70;;
9106;SDS011;4589;48.690;8.952;2023-11-21T14:30:31;11.00;;;5.10;;
9106;SDS011;4589;48.690;8.952;2023-11-21T14:32:59;7.47;;;5.00;;
9106;SDS011;4589;48.690;8.952;2023-11-21T14:35:26;9.87;;;5.67;;
9106;SDS011;4589;48.690;8.952;2023-11-21T14:37:52;10.33;;;5.93;;
9106;SDS011;4589;48.690;8.952;2023-11-21T14:40:18;9.50;;;6.43;;
9106;SDS011;4589;48.690;8.952;2023-11-21T14:42:49;11.57;;;5.77;;
9106;SDS011;4589;48.690;8.952;2023-11-21T14:45:18;12.13;;;6.50;;
9106;SDS011;4589;48.690;8.952;2023-11-21T14:47:45;10.60;;;6.97;;
9106;SDS011;4589;48.690;8.952;2023-11-21T14:50:20;17.87;;;8.37;;
9106;SDS011;4589;48.690;8.952;2023-11-21T14:53:08;15.17;;;7.20;;
9106;SDS011;4589;48.690;8.952;2023-11-21T14:55:35;12.33;;;7.17;;
9106;SDS011;4589;48.690;8.952;2023-11-21T14:58:21;16.00;;;8.27;;
9106;SDS011;4589;48.690;8.952;2023-11-21T15:00:53;13.03;;;7.20;;
9106;SDS011;4589;48.690;8.952;2023-11-21T15:03:26;13.30;;;7.40;;
9106;SDS011;4589;48.690;8.952;2023-11-21T15:06:08;14.17;;;7.90;;
9106;SDS011;4589;48.690;8.952;2023-11-21T15:08:47;19.97;;;9.37;;
9106;SDS011;4589;48.690;8.952;2023-11-21T15:11:30;13.00;;;6.67;;
9106;SDS011;4589;48.690;8.952;2023-11-21T15:13:56;14.27;;;5.67;;
9106;SDS011;4589;48.690;8.952;2023-11-21T15:16:22;10.57;;;5.77;;
9106;SDS011;4589;48.690;8.952;2023-11-21T15:18:48;8.50;;;5.87;;
9106;SDS011;4589;48.690;8.952;2023-11-21T15:21:14;9.83;;;4.33;;
9106;SDS011;4589;48.690;8.952;2023-11-21T15:23:40;8.60;;;4.57;;
9106;SDS011;4589;48.690;8.952;2023-11-21T15:26:06;5.77;;;4.57;;